Time;durP1;ratioP1;P1;durP2;ratioP2;P2;SDS_P1;SDS_P2;PMS_P1;PMS_P2;Temp;Humidity;BMP_temperature;BMP_pressure;BME280_temperature;BME280_humidity;BME280_pressure;Samples;Min_cycle;Max_cycle;Signal;HPM_P1;HPM_P2
2023/05/23 00:02:07;;;;;;;3.00;1.70;;;;;;;17.70;69.13;99088.90;78220;1298;3027176;-58
2023/05/23 00:04:37;;;;;;;7.00;2.40;;;;;;;17.61;69.49;99088.84;79487;1292;3013492;-60
2023/05/23 00:07:05;;;;;;;3.40;2.20;;;;;;;17.49;70.07;99086.79;78352;1298;3049399;-60
2023/05/23 00:09:32;;;;;;;7.00;2.20;;;;;;;17.38;70.43;99082.02;79396;1297;3014286;-62
2023/05/23 00:11:59;;;;;;;10.50;2.40;;;;;;;17.29;70.72;99082.89;79361;1293;3011834;-59
2023/05/23 00:14:30;;;;;;;6.90;2.80;;;;;;;17.20;71.23;99081.61;78278;1297;3051042;-59
2023/05/23 00:16:56;;;;;;;3.90;2.10;;;;;;;17.16;71.18;99084.14;79552;1293;3013180;-59
2023/05/23 00:19:26;;;;;;;6.30;2.40;;;;;;;17.12;71.66;99084.98;78991;1292;3012854;-58
2023/05/23 00:21:55;;;;;;;3.20;1.30;;;;;;;17.08;72.29;99088.37;79472;1292;3012955;-60
2023/05/23 00:24:24;;;;;;;2.40;1.70;;;;;;;17.60;70.87;99081.88;79039;1292;3012831;-58
2023/05/23 00:26:51;;;;;;;7.70;1.60;;;;;;;18.14;68.86;99078.96;79606;1296;3018533;-56
2023/05/23 00:29:18;;;;;;;7.00;2.40;;;;;;;18.27;68.07;99073.23;79611;1298;3011681;-59
2023/05/23 00:31:46;;;;;;;4.60;2.20;;;;;;;18.17;68.20;99073.89;78398;1292;3026098;-58
2023/05/23 00:34:14;;;;;;;7.40;2.30;;;;;;;18.03;68.62;99075.25;79525;1292;3013862;-60
2023/05/23 00:36:42;;;;;;;4.90;2.40;;;;;;;17.84;69.50;99071.10;79421;1293;3011720;-60
2023/05/23 00:39:17;;;;;;;5.50;2.10;;;;;;;17.70;69.92;99070.31;78449;1298;3050555;-58
2023/05/23 00:41:47;;;;;;;5.60;2.20;;;;;;;17.55;70.42;99070.54;79025;1298;3013026;-59
2023/05/23 00:44:15;;;;;;;3.50;1.90;;;;;;;17.41;71.21;99065.22;79504;1295;3011550;-59
2023/05/23 00:46:43;;;;;;;3.10;2.10;;;;;;;17.32;71.39;99064.92;79589;1298;3011646;-60
2023/05/23 00:49:11;;;;;;;3.40;1.90;;;;;;;17.25;71.61;99064.12;78251;1293;3050902;-57
2023/05/23 00:51:41;;;;;;;4.90;2.20;;;;;;;17.20;71.93;99065.17;79675;1295;3011876;-59
2023/05/23 00:54:09;;;;;;;5.50;2.00;;;;;;;17.13;72.59;99063.69;78300;1297;3049019;-59
2023/05/23 00:56:36;;;;;;;2.00;1.10;;;;;;;17.09;72.85;99063.15;79427;1298;3019582;-59
2023/05/23 00:59:03;;;;;;;3.00;1.70;;;;;;;17.60;71.55;99067.66;79282;1292;3012107;-61
2023/05/23 01:01:32;;;;;;;2.10;1.60;;;;;;;18.17;69.59;99067.58;78369;1297;3026404;-59
2023/05/23 01:03:58;;;;;;;3.80;1.90;;;;;;;18.28;69.00;99065.05;79316;1301;3013353;-59
2023/05/23 01:06:29;;;;;;;4.40;1.60;;;;;;;18.17;68.97;99068.08;79304;1293;3011469;-59
2023/05/23 01:09:00;;;;;;;6.50;1.80;;;;;;;18.00;69.31;99065.67;78334;1298;3050694;-60
2023/05/23 01:11:34;;;;;;;6.00;2.10;;;;;;;17.87;69.85;99069.02;79445;1298;3012782;-59
2023/05/23 01:14:06;;;;;;;4.00;1.90;;;;;;;17.71;70.32;99072.87;78330;1298;3051516;-57
2023/05/23 01:16:47;;;;;;;5.10;2.10;;;;;;;17.57;70.76;99070.14;79593;1297;3011623;-59
2023/05/23 01:19:31;;;;;;;7.00;2.10;;;;;;;17.45;71.33;99075.72;78311;1297;3053646;-59
2023/05/23 01:21:59;;;;;;;6.80;2.10;;;;;;;17.34;71.72;99076.88;78196;1298;3069267;-59
2023/05/23 01:24:36;;;;;;;5.90;2.10;;;;;;;17.21;72.68;99074.92;79684;1292;3013683;-58
2023/05/23 01:27:23;;;;;;;4.30;2.40;;;;;;;17.17;72.72;99076.75;78312;1297;3049281;-58
2023/05/23 01:29:53;;;;;;;2.20;1.20;;;;;;;17.16;72.66;99076.34;78328;1292;3054430;-58
2023/05/23 01:32:21;;;;;;;7.90;1.80;;;;;;;17.77;71.48;99081.85;79575;1298;3013259;-58
2023/05/23 01:34:51;;;;;;;3.70;1.40;;;;;;;18.36;69.25;99080.01;78173;1298;3025991;-60
2023/05/23 01:37:20;;;;;;;3.00;1.90;;;;;;;18.46;68.40;99086.52;79676;1292;3013566;-58
2023/05/23 01:39:48;;;;;;;4.40;1.70;;;;;;;18.31;68.55;99092.36;78402;1297;3026966;-57
2023/05/23 01:42:14;;;;;;;3.60;1.90;;;;;;;18.15;69.22;99089.02;79646;1293;3013243;-60
2023/05/23 01:44:41;;;;;;;5.70;2.10;;;;;;;17.97;69.65;99095.11;79534;1297;3011497;-58
2023/05/23 01:47:09;;;;;;;3.90;1.90;;;;;;;17.82;70.09;99092.34;78172;1296;3028401;-57
2023/05/23 01:49:36;;;;;;;2.90;2.00;;;;;;;17.74;70.19;99099.52;79464;1295;3012856;-57
2023/05/23 01:52:03;;;;;;;4.70;2.10;;;;;;;17.61;70.91;99097.77;79402;1293;3011904;-60
2023/05/23 01:54:32;;;;;;;4.70;2.20;;;;;;;17.47;71.37;99100.84;78245;1298;3069053;-59
2023/05/23 01:56:58;;;;;;;4.10;2.00;;;;;;;17.34;72.27;99105.39;79593;1295;3020600;-60
2023/05/23 01:59:25;;;;;;;4.80;2.30;;;;;;;17.26;72.61;99106.35;79303;1300;3012962;-58
2023/05/23 02:01:53;;;;;;;3.10;1.40;;;;;;;17.20;73.35;99106.73;78119;1296;3028968;-59
2023/05/23 02:04:20;;;;;;;5.40;1.70;;;;;;;17.70;71.71;99102.16;79292;1301;3012915;-58
2023/05/23 02:06:47;;;;;;;3.80;1.80;;;;;;;18.23;70.18;99095.68;79619;1297;3011702;-57
2023/05/23 02:09:15;;;;;;;4.80;2.00;;;;;;;18.26;69.46;99096.77;78366;1296;3027119;-59
2023/05/23 02:11:42;;;;;;;5.40;2.30;;;;;;;18.21;69.31;99096.00;79696;1296;3012701;-59
2023/05/23 02:14:08;;;;;;;4.70;1.80;;;;;;;18.09;69.63;99097.73;79598;1295;3011699;-59
2023/05/23 02:16:37;;;;;;;5.50;2.20;;;;;;;17.92;70.07;99101.70;78419;1298;3029155;-60
2023/05/23 02:19:04;;;;;;;4.10;2.20;;;;;;;17.79;70.58;99103.27;79542;1295;3013535;-60
2023/05/23 02:21:31;;;;;;;6.50;2.40;;;;;;;17.66;71.03;99105.59;79580;1297;3012090;-59
2023/05/23 02:23:59;;;;;;;4.50;2.60;;;;;;;17.52;71.95;99105.63;78434;1297;3069169;-59
2023/05/23 02:26:26;;;;;;;5.20;2.30;;;;;;;17.44;72.00;99107.48;79556;1295;3012910;-59
2023/05/23 02:28:53;;;;;;;4.50;2.30;;;;;;;17.36;72.27;99111.45;79577;1292;3011802;-60
2023/05/23 02:31:21;;;;;;;3.30;2.30;;;;;;;17.27;72.90;99107.10;78362;1298;3029142;-59
2023/05/23 02:33:47;;;;;;;5.30;1.80;;;;;;;17.22;73.48;99108.13;79416;1295;3013409;-59
2023/05/23 02:36:14;;;;;;;3.50;1.50;;;;;;;17.77;72.12;99102.79;79570;1295;3013768;-61
2023/05/23 02:38:42;;;;;;;5.60;1.70;;;;;;;18.32;70.04;99102.38;78211;1298;3028363;-61
2023/05/23 02:41:09;;;;;;;5.70;1.70;;;;;;;18.42;69.39;99102.42;79524;1297;3013579;-60
2023/05/23 02:43:38;;;;;;;3.80;2.20;;;;;;;18.32;69.39;99099.05;79629;1293;3011641;-59
2023/05/23 02:46:06;;;;;;;3.40;1.90;;;;;;;18.15;69.91;99098.76;78354;1292;3054244;-60
2023/05/23 02:48:33;;;;;;;6.40;2.40;;;;;;;17.93;70.78;99108.98;79766;1295;3019152;-59
2023/05/23 02:50:59;;;;;;;4.10;2.40;;;;;;;17.80;70.96;99107.22;79456;1295;3011532;-59
2023/05/23 02:53:27;;;;;;;4.80;2.20;;;;;;;17.68;71.77;99108.10;78303;1297;3029440;-61
2023/05/23 02:55:55;;;;;;;5.50;2.50;;;;;;;17.55;72.68;99110.65;79593;1292;3015517;-60
2023/05/23 02:58:21;;;;;;;3.20;2.30;;;;;;;17.45;73.96;99110.75;79544;1292;3013126;-59
2023/05/23 03:00:49;;;;;;;6.10;2.30;;;;;;;17.36;74.70;99108.63;78168;1298;3053286;-58
2023/05/23 03:03:16;;;;;;;3.80;1.80;;;;;;;17.79;73.85;99107.34;79746;1292;3013018;-58
2023/05/23 03:05:43;;;;;;;5.50;2.50;;;;;;;18.27;72.26;99104.31;79495;1297;3013210;-60
2023/05/23 03:08:12;;;;;;;4.20;2.10;;;;;;;18.36;71.81;99103.23;78401;1296;3068139;-59
2023/05/23 03:10:39;;;;;;;5.30;2.30;;;;;;;18.23;72.20;99108.27;79568;1295;3014722;-57
2023/05/23 03:13:06;;;;;;;4.80;2.40;;;;;;;17.99;73.07;99110.55;79516;1293;3011617;-55
2023/05/23 03:15:34;;;;;;;5.00;2.90;;;;;;;17.81;73.68;99115.27;78205;1298;3054441;-59
2023/05/23 03:18:01;;;;;;;7.50;2.60;;;;;;;17.64;74.84;99114.27;79323;1298;3012993;-58
2023/05/23 03:20:28;;;;;;;6.40;2.90;;;;;;;17.49;75.23;99118.36;79526;1298;3012972;-59
2023/05/23 03:22:56;;;;;;;6.10;3.20;;;;;;;17.31;76.14;99115.73;78287;1298;3026584;-59
2023/05/23 03:25:23;;;;;;;3.20;1.60;;;;;;;17.22;77.00;99115.60;79612;1294;3018941;-58
2023/05/23 03:27:49;;;;;;;4.40;2.00;;;;;;;17.64;76.33;99109.27;79492;1297;3011568;-58
2023/05/23 03:30:17;;;;;;;4.60;2.30;;;;;;;18.11;74.24;99107.27;78385;1297;3027202;-59
2023/05/23 03:32:45;;;;;;;4.80;2.80;;;;;;;18.22;73.58;99108.33;79381;1298;3013622;-59
2023/05/23 03:35:11;;;;;;;4.20;2.70;;;;;;;18.11;73.99;99108.37;79444;1296;3012618;-59
2023/05/23 03:37:40;;;;;;;5.70;2.80;;;;;;;17.95;74.68;99110.65;78446;1293;3068989;-59
2023/05/23 03:40:08;;;;;;;8.60;3.10;;;;;;;17.74;75.83;99113.66;79421;1294;3018494;-58
2023/05/23 03:42:37;;;;;;;5.10;2.40;;;;;;;17.58;76.68;99108.80;79555;1292;3011445;-59
2023/05/23 03:45:06;;;;;;;7.10;3.10;;;;;;;17.43;77.89;99107.40;78368;1293;3053605;-60
2023/05/23 03:47:33;;;;;;;6.00;1.50;;;;;;;17.30;79.33;99106.52;79539;1298;3011616;-61
2023/05/23 03:50:00;;;;;;;6.40;2.30;;;;;;;17.76;78.16;99103.92;79413;1298;3011603;-60
2023/05/23 03:52:28;;;;;;;5.10;2.40;;;;;;;18.19;75.67;99098.84;78373;1297;3069902;-58
2023/05/23 03:54:55;;;;;;;7.40;2.50;;;;;;;18.24;75.29;99103.90;79531;1293;3020864;-59
2023/05/23 03:57:22;;;;;;;10.00;3.30;;;;;;;18.11;75.93;99103.95;79429;1295;3011690;-61
2023/05/23 03:59:51;;;;;;;8.50;3.40;;;;;;;17.96;76.53;99107.66;78382;1297;3053657;-61
2023/05/23 04:02:18;;;;;;;6.10;3.20;;;;;;;17.84;76.94;99106.11;79556;1295;3013841;-60
2023/05/23 04:04:45;;;;;;;5.20;3.00;;;;;;;17.69;77.77;99104.90;79520;1298;3013401;-59
2023/05/23 04:07:14;;;;;;;5.80;2.90;;;;;;;17.61;78.54;99098.45;78405;1293;3068174;-60
2023/05/23 04:09:41;;;;;;;5.50;1.90;;;;;;;17.57;78.65;99099.20;79691;1298;3013671;-61
2023/05/23 04:12:10;;;;;;;4.40;2.40;;;;;;;18.17;77.38;99094.97;79566;1292;3011677;-60
2023/05/23 04:14:39;;;;;;;7.70;2.70;;;;;;;18.71;75.64;99093.23;78381;1298;3052131;-62
2023/05/23 04:17:08;;;;;;;6.60;3.00;;;;;;;18.81;74.61;99096.83;79489;1295;3013329;-60
2023/05/23 04:19:35;;;;;;;5.10;3.10;;;;;;;18.69;74.35;99094.11;79613;1297;3011616;-59
2023/05/23 04:22:03;;;;;;;4.50;2.80;;;;;;;18.61;74.63;99102.10;78220;1301;3069037;-61
2023/05/23 04:24:30;;;;;;;6.00;3.40;;;;;;;18.48;75.56;99096.55;79471;1293;3020752;-63
2023/05/23 04:26:58;;;;;;;6.20;3.50;;;;;;;18.33;75.61;99094.48;79560;1298;3011619;-61
2023/05/23 04:29:26;;;;;;;9.00;3.40;;;;;;;18.22;76.05;99099.85;78380;1293;3051962;-60
2023/05/23 04:31:54;;;;;;;7.10;3.60;;;;;;;18.10;76.23;99099.94;79486;1298;3013272;-59
2023/05/23 04:34:21;;;;;;;5.40;2.50;;;;;;;18.00;76.83;99103.22;79561;1296;3011720;-57
2023/05/23 04:36:49;;;;;;;5.60;2.20;;;;;;;18.47;75.68;99102.47;78363;1298;3068831;-60
2023/05/23 04:39:16;;;;;;;5.80;2.40;;;;;;;18.94;73.56;99100.48;79450;1298;3013156;-60
2023/05/23 04:41:58;;;;;;;5.10;3.00;;;;;;;19.00;73.02;99097.02;78139;1298;3050167;-62
2023/05/23 04:44:43;;;;;;;6.00;3.30;;;;;;;18.84;73.44;99097.30;78387;1297;3052474;-58
2023/05/23 04:47:14;;;;;;;6.40;3.20;;;;;;;18.63;74.03;99093.86;79488;1293;3011678;-61
2023/05/23 04:49:56;;;;;;;11.90;4.00;;;;;;;18.43;74.90;99097.05;78338;1298;3052724;-60
2023/05/23 04:52:24;;;;;;;6.20;3.80;;;;;;;18.35;74.96;99093.23;79533;1298;3018625;-62
2023/05/23 04:54:52;;;;;;;9.50;4.00;;;;;;;18.26;74.99;99095.71;79620;1296;3013572;-59
2023/05/23 04:57:21;;;;;;;5.40;4.00;;;;;;;18.18;76.08;99095.30;78168;1293;3059675;-59
2023/05/23 04:59:48;;;;;;;3.90;1.90;;;;;;;18.16;76.11;99096.05;79568;1298;3013401;-61
2023/05/23 05:02:14;;;;;;;6.90;2.90;;;;;;;18.61;74.91;99097.21;79354;1297;3011607;-62
2023/05/23 05:04:43;;;;;;;4.70;2.80;;;;;;;19.05;72.74;99099.22;78191;1298;3028242;-60
2023/05/23 05:07:10;;;;;;;6.00;3.30;;;;;;;19.06;72.33;99100.23;79569;1298;3013636;-61
2023/05/23 05:09:37;;;;;;;5.70;3.60;;;;;;;18.89;72.57;99105.28;79476;1298;3012987;-60
2023/05/23 05:12:05;;;;;;;8.80;4.10;;;;;;;18.78;73.39;99103.86;78365;1298;3056647;-60
2023/05/23 05:14:32;;;;;;;6.50;3.90;;;;;;;18.62;73.90;99105.13;79579;1293;3013491;-59
2023/05/23 05:17:01;;;;;;;5.20;3.90;;;;;;;18.43;74.75;99107.33;79476;1292;3013825;-61
2023/05/23 05:19:36;;;;;;;4.60;4.10;;;;;;;18.28;75.17;99108.29;78222;1298;3053840;-59
2023/05/23 05:22:03;;;;;;;8.40;5.00;;;;;;;18.08;76.39;99110.61;79378;1298;3020549;-61
2023/05/23 05:24:31;;;;;;;4.90;2.50;;;;;;;18.02;76.76;99115.80;79723;1292;3011681;-61
2023/05/23 05:26:59;;;;;;;4.20;3.20;;;;;;;18.56;75.05;99113.73;78238;1298;3056062;-59
2023/05/23 05:29:26;;;;;;;6.20;3.70;;;;;;;19.00;73.09;99114.50;79519;1293;3012887;-61
2023/05/23 05:31:52;;;;;;;5.40;4.30;;;;;;;19.04;72.54;99119.38;79553;1293;3011434;-62
2023/05/23 05:34:21;;;;;;;11.30;4.70;;;;;;;18.86;72.98;99117.10;78187;1298;3028365;-61
2023/05/23 05:36:48;;;;;;;7.00;4.80;;;;;;;18.69;73.69;99122.04;79537;1295;3013163;-61
2023/05/23 05:39:19;;;;;;;9.80;5.70;;;;;;;18.54;73.96;99123.42;79105;1292;3011808;-61
2023/05/23 05:41:46;;;;;;;6.90;5.50;;;;;;;18.36;74.80;99120.63;79560;1295;3013248;-61
2023/05/23 05:44:13;;;;;;;7.80;5.80;;;;;;;18.26;75.29;99117.05;79425;1292;3013654;-61
2023/05/23 05:46:41;;;;;;;8.80;6.20;;;;;;;18.11;75.99;99119.88;78156;1292;3052766;-61
2023/05/23 05:49:08;;;;;;;6.00;3.20;;;;;;;18.00;77.12;99120.13;79592;1303;3012692;-61
2023/05/23 05:51:35;;;;;;;6.20;3.80;;;;;;;18.47;75.37;99116.06;79562;1298;3011836;-60
2023/05/23 05:54:03;;;;;;;8.10;3.70;;;;;;;18.99;73.19;99118.48;78331;1297;3026472;-60
2023/05/23 05:56:30;;;;;;;6.00;3.90;;;;;;;19.18;72.06;99119.43;79551;1293;3013721;-60
2023/05/23 05:58:56;;;;;;;7.80;4.20;;;;;;;19.05;72.18;99114.89;79652;1293;3011561;-61
2023/05/23 06:01:25;;;;;;;9.10;3.90;;;;;;;18.91;72.56;99111.61;78217;1293;3027069;-58
2023/05/23 06:03:52;;;;;;;7.30;3.60;;;;;;;18.75;72.94;99114.14;79390;1298;3013795;-61
2023/05/23 06:06:19;;;;;;;8.40;4.00;;;;;;;18.64;73.29;99112.03;79609;1293;3012782;-62
2023/05/23 06:08:47;;;;;;;6.80;4.00;;;;;;;18.56;73.91;99104.48;78187;1298;3067942;-61
2023/05/23 06:11:16;;;;;;;7.30;4.10;;;;;;;18.50;74.13;99100.97;79673;1299;3013374;-61
2023/05/23 06:13:42;;;;;;;10.80;4.20;;;;;;;18.46;74.36;99098.78;79785;1299;3011807;-61
2023/05/23 06:16:10;;;;;;;4.80;3.10;;;;;;;18.39;74.93;99099.21;78413;1299;3053490;-61
2023/05/23 06:18:37;;;;;;;7.50;3.90;;;;;;;18.86;73.46;99097.78;79622;1298;3013338;-60
2023/05/23 06:21:04;;;;;;;7.10;3.50;;;;;;;19.30;72.08;99094.73;79586;1293;3011891;-62
2023/05/23 06:23:34;;;;;;;8.10;3.10;;;;;;;19.46;71.76;99099.64;78180;1293;3069705;-60
2023/05/23 06:26:00;;;;;;;6.10;3.30;;;;;;;19.41;72.11;99097.29;79604;1295;3013584;-60
2023/05/23 06:28:28;;;;;;;6.70;3.50;;;;;;;19.32;72.34;99096.82;79777;1296;3011763;-62
2023/05/23 06:30:56;;;;;;;6.80;3.80;;;;;;;19.11;73.27;99094.93;78334;1298;3053795;-62
2023/05/23 06:33:23;;;;;;;5.80;3.30;;;;;;;18.95;73.97;99095.62;79923;1298;3012905;-62
2023/05/23 06:35:49;;;;;;;5.60;3.10;;;;;;;18.82;74.87;99097.10;79582;1298;3011927;-61
2023/05/23 06:38:17;;;;;;;4.50;3.30;;;;;;;18.77;75.06;99094.41;78524;1293;3026623;-60
2023/05/23 06:40:44;;;;;;;4.90;2.30;;;;;;;18.73;75.20;99090.69;79643;1298;3013471;-62
2023/05/23 06:43:11;;;;;;;6.50;2.70;;;;;;;19.21;74.48;99089.83;79752;1295;3011922;-61
2023/05/23 06:45:46;;;;;;;5.00;2.90;;;;;;;19.69;72.01;99089.81;78583;1296;3053073;-61
2023/05/23 06:48:13;;;;;;;4.00;2.60;;;;;;;19.72;71.47;99085.80;79622;1298;3012810;-60
2023/05/23 06:50:40;;;;;;;4.50;3.10;;;;;;;19.57;71.72;99087.36;79667;1295;3011484;-60
2023/05/23 06:53:08;;;;;;;4.70;3.20;;;;;;;19.34;72.94;99085.44;78223;1298;3069897;-59
2023/05/23 06:55:35;;;;;;;4.50;3.00;;;;;;;19.25;73.14;99083.16;79535;1296;3013082;-61
2023/05/23 06:58:03;;;;;;;4.10;2.50;;;;;;;19.21;72.75;99087.14;79613;1298;3011606;-61
2023/05/23 07:00:31;;;;;;;6.40;3.20;;;;;;;19.12;73.05;99085.91;78369;1296;3053750;-61
2023/05/23 07:03:13;;;;;;;4.70;2.80;;;;;;;18.98;73.51;99082.55;78161;1297;3050071;-61
2023/05/23 07:05:40;;;;;;;4.90;2.70;;;;;;;18.93;73.47;99083.78;79526;1299;3018588;-62
2023/05/23 07:08:09;;;;;;;9.90;3.30;;;;;;;18.81;73.96;99085.85;79403;1298;3013763;-61
2023/05/23 07:10:40;;;;;;;2.00;1.60;;;;;;;18.85;73.95;99085.66;78401;1308;3051982;-60
2023/05/23 07:13:18;;;;;;;4.80;2.20;;;;;;;19.55;71.37;99085.35;78264;1297;3057973;-62
2023/05/23 07:15:46;;;;;;;4.30;2.20;;;;;;;20.11;69.45;99081.42;79461;1294;3013466;-64
2023/05/23 07:18:13;;;;;;;4.30;2.30;;;;;;;20.21;68.34;99081.21;79752;1299;3011893;-58
2023/05/23 07:20:41;;;;;;;4.80;2.30;;;;;;;20.15;68.45;99078.83;78327;1298;3052942;-60
2023/05/23 07:23:14;;;;;;;5.20;2.60;;;;;;;19.92;69.54;99078.68;79537;1297;3011878;-62
2023/05/23 07:25:43;;;;;;;3.70;2.40;;;;;;;19.75;70.04;99081.41;78192;1299;3069185;-61
2023/05/23 07:28:18;;;;;;;4.50;2.20;;;;;;;19.38;71.96;99080.27;79072;1295;3011591;-60
2023/05/23 07:30:45;;;;;;;3.50;1.70;;;;;;;19.41;72.78;99080.61;79462;1295;3013374;-62
2023/05/23 07:33:13;;;;;;;3.50;1.80;;;;;;;19.37;72.28;99080.19;79709;1295;3011374;-61
2023/05/23 07:35:43;;;;;;;3.80;1.90;;;;;;;19.30;73.42;99081.65;78339;1298;3052469;-62
2023/05/23 07:38:09;;;;;;;3.00;1.50;;;;;;;19.16;75.20;99086.74;79700;1298;3014247;-63
2023/05/23 07:40:39;;;;;;;3.20;1.50;;;;;;;19.60;73.04;99086.35;79489;1298;3011635;-63
2023/05/23 07:43:07;;;;;;;4.30;1.90;;;;;;;20.09;71.21;99081.96;78274;1298;3068984;-62
2023/05/23 07:45:33;;;;;;;2.80;1.80;;;;;;;20.15;70.34;99084.69;79368;1296;3018493;-62
2023/05/23 07:48:00;;;;;;;3.80;2.00;;;;;;;19.90;70.97;99091.21;79418;1293;3011896;-62
2023/05/23 07:50:28;;;;;;;3.70;1.70;;;;;;;19.80;71.26;99091.14;78341;1301;3025956;-62
2023/05/23 07:52:55;;;;;;;2.50;1.70;;;;;;;19.55;71.49;99087.50;79679;1298;3012850;-62
2023/05/23 07:55:27;;;;;;;4.00;1.90;;;;;;;19.43;72.24;99088.05;78302;1296;3053854;-63
2023/05/23 07:57:55;;;;;;;3.60;2.10;;;;;;;19.32;73.28;99092.81;79464;1295;3013840;-60
2023/05/23 08:00:22;;;;;;;4.00;1.80;;;;;;;19.20;73.49;99088.27;79564;1296;3011778;-62
2023/05/23 08:03:04;;;;;;;4.50;1.90;;;;;;;19.10;74.15;99087.38;78219;1298;3050472;-59
2023/05/23 08:05:35;;;;;;;;;;;;;;;19.11;74.03;99089.94;79482;1296;3011574;-62
2023/05/23 08:08:03;;;;;;;2.40;1.60;;;;;;;19.05;74.26;99087.73;78387;1299;3049358;-60
2023/05/23 08:10:30;;;;;;;2.10;0.90;;;;;;;19.04;74.26;99086.34;79587;1301;3014052;-61
2023/05/23 08:13:05;;;;;;;3.80;1.80;;;;;;;19.66;72.28;99087.45;78324;1297;3068007;-59
2023/05/23 08:15:36;;;;;;;2.40;1.00;;;;;;;20.02;70.46;99085.34;79592;1296;3011632;-60
2023/05/23 08:18:10;;;;;;;2.50;1.50;;;;;;;20.02;69.76;99081.41;78346;1299;3057452;-59
2023/05/23 08:20:37;;;;;;;3.10;1.50;;;;;;;19.91;70.33;99082.91;79665;1299;3013242;-60
2023/05/23 08:23:03;;;;;;;3.30;2.30;;;;;;;19.81;71.06;99082.91;79379;1295;3011947;-61
2023/05/23 08:25:32;;;;;;;2.90;1.80;;;;;;;19.64;71.90;99083.36;78176;1298;3050874;-60
2023/05/23 08:28:00;;;;;;;4.30;1.60;;;;;;;19.57;71.79;99085.54;79636;1298;3014597;-59
2023/05/23 08:30:46;;;;;;;3.20;1.50;;;;;;;19.49;72.50;99083.51;78254;1298;3051702;-59
2023/05/23 08:33:13;;;;;;;3.20;1.70;;;;;;;19.48;72.14;99088.33;79546;1294;3014678;-58
2023/05/23 08:35:41;;;;;;;2.90;1.50;;;;;;;19.39;72.82;99088.15;79691;1294;3011851;-59
2023/05/23 08:38:10;;;;;;;4.10;1.70;;;;;;;19.39;73.44;99084.02;78262;1306;3050132;-59
2023/05/23 08:40:41;;;;;;;1.20;0.80;;;;;;;19.47;72.76;99081.63;79591;1299;3013217;-60
2023/05/23 08:43:12;;;;;;;2.30;1.20;;;;;;;20.12;70.30;99074.30;78176;1298;3053798;-58
2023/05/23 08:45:39;;;;;;;2.30;1.30;;;;;;;20.82;67.64;99077.27;79605;1298;3013690;-58
2023/05/23 08:48:08;;;;;;;2.70;1.30;;;;;;;20.97;66.41;99079.38;79524;1293;3012190;-60
2023/05/23 08:50:36;;;;;;;3.70;1.50;;;;;;;20.89;66.76;99077.23;78331;1292;3049966;-58
2023/05/23 08:53:03;;;;;;;5.80;1.20;;;;;;;20.88;66.19;99079.47;79276;1301;3012985;-60
2023/05/23 08:55:30;;;;;;;3.20;1.60;;;;;;;20.70;66.59;99078.08;79281;1293;3011719;-59
2023/05/23 08:58:00;;;;;;;2.50;1.40;;;;;;;20.40;67.74;99075.75;78392;1298;3053150;-58
2023/05/23 09:00:48;;;;;;;1.90;1.40;;;;;;;20.07;69.14;99079.83;76068;1293;3070236;-60
2023/05/23 09:03:15;;;;;;;5.00;1.20;;;;;;;19.81;70.22;99078.59;79501;1292;3013522;-60
2023/05/23 09:05:57;;;;;;;3.70;1.10;;;;;;;19.57;70.96;99074.19;78123;1297;3049214;-59
2023/05/23 09:08:23;;;;;;;1.40;1.20;;;;;;;19.53;71.09;99076.36;79206;1292;3020568;-59
2023/05/23 09:10:50;;;;;;;2.40;1.30;;;;;;;19.53;71.42;99071.11;79166;1301;3011911;-59
2023/05/23 09:13:19;;;;;;;1.90;1.60;;;;;;;19.38;71.45;99069.63;78107;1308;3028475;-58
2023/05/23 09:16:06;;;;;;;4.10;1.40;;;;;;;19.25;72.32;99069.48;79704;1294;3013161;-60
2023/05/23 09:18:41;;;;;;;3.20;1.50;;;;;;;19.24;72.08;99065.90;78390;1299;3052515;-60
2023/05/23 09:21:11;;;;;;;3.20;0.80;;;;;;;19.21;72.87;99058.94;79575;1293;3011983;-59
2023/05/23 09:23:42;;;;;;;4.80;1.40;;;;;;;19.84;70.57;99053.79;78194;1298;3048816;-60
2023/05/23 09:26:10;;;;;;;1.80;1.10;;;;;;;20.35;68.59;99049.05;79579;1297;3014208;-59
2023/05/23 09:28:38;;;;;;;1.80;1.30;;;;;;;20.67;67.24;99043.70;79482;1298;3012079;-60
2023/05/23 09:31:07;;;;;;;3.70;1.60;;;;;;;20.69;66.80;99043.11;78328;1297;3053848;-59
2023/05/23 09:33:35;;;;;;;3.60;1.80;;;;;;;20.62;66.83;99051.48;79642;1298;3013069;-65
2023/05/23 09:36:06;;;;;;;3.20;1.60;;;;;;;20.45;66.95;99051.22;79099;1292;3013054;-60
2023/05/23 09:38:39;;;;;;;6.80;2.50;;;;;;;20.34;67.60;99053.14;79498;1295;3013645;-59
2023/05/23 09:41:10;;;;;;;3.60;2.10;;;;;;;20.26;68.07;99051.14;78220;1298;3053390;-57
2023/05/23 09:43:39;;;;;;;2.70;1.90;;;;;;;20.27;67.53;99048.73;79350;1298;3013426;-59
2023/05/23 09:46:09;;;;;;;3.50;2.00;;;;;;;20.32;66.79;99050.11;78316;1295;3053107;-59
2023/05/23 09:48:36;;;;;;;2.90;2.20;;;;;;;20.29;67.04;99055.57;79523;1298;3013736;-59
2023/05/23 09:51:08;;;;;;;2.30;1.70;;;;;;;20.34;67.27;99053.69;78345;1293;3025684;-59
2023/05/23 09:53:35;;;;;;;4.70;2.10;;;;;;;20.30;67.26;99053.17;79557;1292;3013221;-58
2023/05/23 09:56:05;;;;;;;2.90;2.30;;;;;;;20.16;67.70;99057.34;79119;1292;3011945;-60
2023/05/23 09:58:32;;;;;;;5.80;2.30;;;;;;;20.13;68.47;99057.16;79503;1295;3013017;-59
2023/05/23 10:01:02;;;;;;;4.30;2.20;;;;;;;20.02;68.92;99054.77;79341;1293;3011911;-60
2023/05/23 10:03:45;;;;;;;4.90;2.00;;;;;;;20.03;68.94;99054.18;78212;1298;3052873;-61
2023/05/23 10:06:16;;;;;;;;;;;;;;;20.06;68.84;99057.34;78431;1296;3053146;-59
2023/05/23 10:08:43;;;;;;;4.80;2.90;;;;;;;20.09;68.79;99057.39;79469;1293;3011565;-60
2023/05/23 10:11:12;;;;;;;5.40;3.70;;;;;;;20.19;68.31;99057.58;78823;1293;3013520;-59
2023/05/23 10:13:47;;;;;;;6.00;3.30;;;;;;;20.25;67.96;99051.73;79520;1292;3012912;-59
2023/05/23 10:16:18;;;;;;;7.10;3.60;;;;;;;20.42;67.83;99042.84;78316;1293;3053207;-60
2023/05/23 10:18:47;;;;;;;7.50;4.40;;;;;;;20.52;67.08;99041.44;79585;1292;3013108;-59
2023/05/23 10:21:19;;;;;;;6.20;3.70;;;;;;;20.52;67.09;99043.02;78439;1298;3052658;-58
2023/05/23 10:23:46;;;;;;;7.70;3.90;;;;;;;20.49;66.61;99040.30;79706;1298;3012916;-60
2023/05/23 10:26:15;;;;;;;5.90;3.70;;;;;;;20.55;66.61;99042.02;78612;1298;3026213;-60
2023/05/23 10:28:42;;;;;;;6.00;3.80;;;;;;;20.64;66.12;99039.52;79710;1293;3012824;-59
2023/05/23 10:31:09;;;;;;;8.30;4.00;;;;;;;20.71;65.82;99036.52;79384;1293;3013081;-61
2023/05/23 10:33:41;;;;;;;7.80;4.60;;;;;;;20.86;65.24;99033.48;78381;1293;3053097;-57
2023/05/23 10:36:18;;;;;;;10.30;4.70;;;;;;;20.98;65.06;99028.68;79633;1298;3011577;-60
2023/05/23 10:38:57;;;;;;;8.30;4.70;;;;;;;20.77;66.02;99027.25;78308;1295;3052946;-60
2023/05/23 10:41:32;;;;;;;8.90;4.50;;;;;;;20.59;66.58;99023.92;78463;1298;3052220;-57
2023/05/23 10:44:17;;;;;;;9.70;5.20;;;;;;;20.48;67.37;99021.48;78337;1298;3067836;-60
2023/05/23 10:46:48;;;;;;;12.20;4.70;;;;;;;20.60;66.83;99022.21;78407;1298;3052166;-59
2023/05/23 10:49:16;;;;;;;6.50;5.20;;;;;;;20.79;66.51;99025.86;79788;1295;3012785;-59
2023/05/23 10:51:50;;;;;;;8.30;5.70;;;;;;;20.90;65.94;99031.00;78130;1300;3027081;-59
2023/05/23 10:54:19;;;;;;;10.10;5.50;;;;;;;21.05;65.73;99032.96;79214;1292;3011643;-60
2023/05/23 10:56:47;;;;;;;10.00;6.10;;;;;;;21.18;65.19;99030.95;79699;1293;3013707;-59
2023/05/23 10:59:21;;;;;;;11.10;6.00;;;;;;;21.22;64.21;99026.93;79656;1292;3011637;-57
2023/05/23 11:01:51;;;;;;;10.70;7.30;;;;;;;21.19;64.36;99027.69;78493;1298;3053538;-60
2023/05/23 11:04:24;;;;;;;10.70;6.80;;;;;;;20.96;65.46;99029.42;79713;1293;3011644;-58
2023/05/23 11:06:54;;;;;;;11.70;7.00;;;;;;;21.10;65.39;99028.45;78385;1298;3051046;-62
2023/05/23 11:09:21;;;;;;;9.00;6.30;;;;;;;21.18;64.55;99030.75;79724;1293;3013203;-59
2023/05/23 11:11:47;;;;;;;10.30;7.50;;;;;;;21.27;63.82;99032.02;79667;1293;3011593;-60
2023/05/23 11:14:15;;;;;;;12.10;7.40;;;;;;;21.29;64.17;99035.13;78639;1297;3049404;-59
2023/05/23 11:16:45;;;;;;;10.50;7.50;;;;;;;21.29;64.52;99040.44;79597;1292;3013184;-61
2023/05/23 11:19:17;;;;;;;10.70;8.10;;;;;;;21.27;64.82;99037.64;79091;1298;3011899;-59
2023/05/23 11:21:48;;;;;;;11.20;8.70;;;;;;;21.23;64.74;99038.59;79576;1296;3011919;-59
2023/05/23 11:24:16;;;;;;;12.40;8.40;;;;;;;21.15;64.73;99039.45;78469;1292;3051970;-59
2023/05/23 11:27:02;;;;;;;11.30;8.20;;;;;;;21.19;64.54;99036.06;79547;1298;3013467;-60